Time;durP1;ratioP1;P1;durP2;ratioP2;P2;SDS_P1;SDS_P2;PMS_P1;PMS_P2;Temp;Humidity;BMP_temperature;BMP_pressure;BME280_temperature;BME280_humidity;BME280_pressure;Samples;Min_cycle;Max_cycle;Signal;HPM_P1;HPM_P2
2021/11/15 00:00:34;;;;;;;37.20;24.40;;;;;;;2.82;83.01;100765.13;423855;1312;143319;-62
2021/11/15 00:10:40;;;;;;;35.00;22.80;;;;;;;2.79;82.94;100769.30;432686;1312;142737;-62
2021/11/15 00:20:46;;;;;;;28.50;20.80;;;;;;;2.76;82.96;100780.92;429584;1308;317949;-65
2021/11/15 00:30:52;;;;;;;27.40;18.00;;;;;;;2.72;82.79;100784.44;424996;1311;141669;-62
2021/11/15 00:40:59;;;;;;;28.20;18.40;;;;;;;2.72;82.68;100786.53;424547;1310;141601;-71
2021/11/15 00:51:06;;;;;;;31.20;21.40;;;;;;;2.66;82.78;100791.59;428874;1309;141275;-71
2021/11/15 01:01:12;;;;;;;30.90;20.50;;;;;;;2.68;83.09;100788.81;429023;1311;142607;-70
2021/11/15 01:11:18;;;;;;;27.70;19.00;;;;;;;2.73;83.27;100790.48;432470;1311;141919;-65
2021/11/15 01:21:27;;;;;;;29.60;20.30;;;;;;;2.74;83.04;100791.16;433865;1312;144660;-65
2021/11/15 01:31:33;;;;;;;32.10;19.60;;;;;;;2.79;82.91;100796.45;428043;1312;141517;-64
2021/11/15 01:41:39;;;;;;;28.60;20.70;;;;;;;2.79;83.04;100806.31;433284;1311;141949;-64
2021/11/15 01:51:45;;;;;;;27.80;19.90;;;;;;;2.76;83.10;100807.73;424278;1308;146214;-66
2021/11/15 02:01:52;;;;;;;29.00;19.70;;;;;;;2.74;82.89;100802.91;419363;1310;142254;-65
2021/11/15 02:11:59;;;;;;;24.10;17.80;;;;;;;2.70;82.90;100795.36;421128;1310;141654;-65
2021/11/15 02:22:05;;;;;;;27.60;19.30;;;;;;;2.66;83.14;100788.66;422317;1309;140698;-65
2021/11/15 02:32:11;;;;;;;29.00;18.50;;;;;;;2.64;83.24;100788.67;426864;1311;141284;-63
2021/11/15 02:42:17;;;;;;;32.30;19.10;;;;;;;2.62;83.28;100791.83;422725;1310;142452;-65
2021/11/15 02:52:23;;;;;;;27.40;19.20;;;;;;;2.61;83.32;100795.63;434801;1311;143613;-65
2021/11/15 03:02:30;;;;;;;26.00;16.50;;;;;;;2.66;83.36;100800.07;435114;1310;143205;-66
2021/11/15 03:12:36;;;;;;;26.00;17.10;;;;;;;2.71;83.20;100802.27;430296;1313;143119;-65
2021/11/15 03:22:43;;;;;;;23.10;14.80;;;;;;;2.72;82.92;100805.54;430667;1312;143439;-65
2021/11/15 03:32:50;;;;;;;25.70;16.90;;;;;;;2.72;82.91;100811.08;432401;1313;142577;-65
2021/11/15 03:42:59;;;;;;;23.10;17.00;;;;;;;2.71;82.87;100815.92;434664;1312;141672;-65
2021/11/15 03:53:08;;;;;;;26.50;18.50;;;;;;;2.73;82.92;100815.56;432505;1311;141580;-65
2021/11/15 04:03:19;;;;;;;28.20;18.50;;;;;;;2.71;82.83;100814.54;430386;1312;145323;-65
2021/11/15 04:13:29;;;;;;;31.50;20.00;;;;;;;2.69;82.84;100813.70;429192;1312;141756;-65
2021/11/15 04:23:36;;;;;;;28.50;20.10;;;;;;;2.71;83.11;100819.90;434057;1311;142898;-63
2021/11/15 04:33:43;;;;;;;28.20;19.10;;;;;;;2.73;82.98;100817.11;434486;1313;197436;-65
2021/11/15 04:43:49;;;;;;;28.50;19.60;;;;;;;2.77;82.88;100824.52;426825;1312;142414;-64
2021/11/15 04:53:56;;;;;;;27.90;18.90;;;;;;;2.79;82.92;100830.02;430858;1311;142002;-65
2021/11/15 05:04:02;;;;;;;30.10;21.10;;;;;;;2.82;82.79;100833.09;434949;1310;142359;-65
2021/11/15 05:14:08;;;;;;;28.10;19.20;;;;;;;2.78;82.68;100831.41;426850;1312;141300;-65
2021/11/15 05:24:15;;;;;;;26.30;19.50;;;;;;;2.76;82.59;100838.86;433941;1310;142001;-64
2021/11/15 05:34:20;;;;;;;26.40;19.10;;;;;;;2.75;82.65;100842.86;433087;1311;141945;-65
2021/11/15 05:44:27;;;;;;;26.60;17.70;;;;;;;2.79;82.52;100852.15;432772;1314;142300;-65
2021/11/15 05:54:33;;;;;;;24.60;17.60;;;;;;;2.78;82.29;100855.96;433786;1312;142972;-65
2021/11/15 06:04:40;;;;;;;25.70;18.70;;;;;;;2.77;82.38;100863.74;419736;1312;142273;-64
2021/11/15 06:14:46;;;;;;;28.40;20.80;;;;;;;2.74;82.30;100875.91;427830;1312;142879;-64
2021/11/15 06:24:53;;;;;;;32.20;20.30;;;;;;;2.71;82.72;100887.70;430438;1312;142390;-64
2021/11/15 06:35:00;;;;;;;31.60;19.20;;;;;;;2.69;82.82;100900.34;429050;1309;141741;-64
2021/11/15 06:45:08;;;;;;;32.50;22.00;;;;;;;2.70;82.87;100908.28;434153;1310;143187;-64
2021/11/15 06:55:15;;;;;;;30.70;21.60;;;;;;;2.72;82.98;100908.44;434854;1309;142088;-65
2021/11/15 07:05:21;;;;;;;29.10;20.90;;;;;;;2.75;83.26;100916.52;434518;1311;141200;-65
2021/11/15 07:15:28;;;;;;;34.30;22.50;;;;;;;2.79;83.15;100929.10;433891;1313;183222;-65
2021/11/15 07:25:35;;;;;;;31.20;21.20;;;;;;;2.79;83.15;100928.41;434373;1308;141840;-65
2021/11/15 07:35:41;;;;;;;31.70;20.40;;;;;;;2.80;83.49;100930.48;433977;1312;142688;-70
2021/11/15 07:45:47;;;;;;;29.00;20.00;;;;;;;2.83;83.25;100932.52;433152;1313;144578;-69
2021/11/15 07:55:53;;;;;;;25.70;18.60;;;;;;;2.89;83.38;100937.30;433780;1311;142322;-70
2021/11/15 08:05:59;;;;;;;27.40;19.00;;;;;;;2.93;83.36;100944.35;414923;1316;10001624;-70
2021/11/15 08:16:06;;;;;;;28.70;19.60;;;;;;;3.00;83.11;100937.89;433148;1313;143130;-60
2021/11/15 08:26:35;;;;;;;22.80;17.00;;;;;;;3.07;83.41;100929.33;429347;1314;207134;-60
2021/11/15 08:36:57;;;;;;;22.80;16.80;;;;;;;3.23;83.03;100926.38;434644;1308;141858;-63
2021/11/15 08:47:03;;;;;;;30.60;20.70;;;;;;;3.37;83.02;100931.56;433306;1312;142649;-63
2021/11/15 08:57:10;;;;;;;28.70;18.50;;;;;;;3.44;82.59;100934.42;432895;1314;143445;-66
2021/11/15 09:07:18;;;;;;;27.00;18.60;;;;;;;3.45;82.41;100947.21;434696;1313;203599;-68
2021/11/15 09:17:26;;;;;;;28.50;20.70;;;;;;;3.58;82.35;100945.49;431291;1312;142453;-59
2021/11/15 09:27:31;;;;;;;30.90;20.70;;;;;;;3.76;82.22;100946.30;432227;1310;142599;-57
2021/11/15 09:37:39;;;;;;;30.60;21.30;;;;;;;3.80;81.90;100940.52;433637;1313;143527;-60
2021/11/15 09:47:45;;;;;;;31.40;23.30;;;;;;;3.84;81.90;100945.84;432754;1312;143449;-61
2021/11/15 09:57:52;;;;;;;37.20;24.60;;;;;;;3.84;81.80;100943.42;434812;1312;142188;-63
2021/11/15 10:07:59;;;;;;;35.40;23.50;;;;;;;3.94;81.86;100935.11;432474;1311;143101;-65
2021/11/15 10:18:06;;;;;;;35.00;23.40;;;;;;;4.04;81.46;100933.41;428194;1309;141302;-61
2021/11/15 10:28:13;;;;;;;31.50;22.30;;;;;;;4.05;81.72;100931.33;425990;1313;142345;-65
2021/11/15 10:38:38;;;;;;;38.20;24.60;;;;;;;4.11;81.74;100939.20;419496;1312;141226;-59
2021/11/15 10:48:47;;;;;;;41.90;25.50;;;;;;;4.10;81.46;100943.89;429345;1312;142423;-58
2021/11/15 10:58:54;;;;;;;37.10;24.50;;;;;;;4.04;81.55;100935.66;431215;1312;142142;-59
2021/11/15 11:09:00;;;;;;;36.80;24.90;;;;;;;4.10;81.88;100928.30;433973;1313;143208;-57
2021/11/15 11:19:16;;;;;;;41.00;23.10;;;;;;;4.27;81.77;100916.42;434682;1312;143788;-58
2021/11/15 11:29:24;;;;;;;38.50;26.10;;;;;;;4.41;81.62;100913.92;433562;1313;143786;-59
2021/11/15 11:39:28;;;;;;;;;;;;;;;4.50;81.70;100912.73;434176;1309;142601;-60
2021/11/15 11:49:37;;;;;;;37.30;23.80;;;;;;;4.53;81.26;100907.64;434918;1312;131586;-59
2021/11/15 12:00:01;;;;;;;45.10;25.80;;;;;;;4.61;81.20;100888.42;433413;1312;142582;-65
2021/11/15 12:10:10;;;;;;;37.40;25.40;;;;;;;4.87;81.15;100874.77;433883;1312;142038;-64
2021/11/15 12:20:17;;;;;;;42.80;27.80;;;;;;;5.02;80.97;100874.29;426973;1310;145740;-65
2021/11/15 12:30:26;;;;;;;47.60;27.50;;;;;;;4.93;80.75;100867.02;431978;1313;143360;-61
2021/11/15 12:40:39;;;;;;;45.80;28.60;;;;;;;4.85;80.70;100862.13;434802;1311;142675;-58
2021/11/15 12:50:52;;;;;;;45.90;27.50;;;;;;;4.81;80.54;100861.18;432429;1313;142347;-59
2021/11/15 13:00:59;;;;;;;43.70;27.10;;;;;;;4.82;80.89;100858.73;417577;1311;10002105;-58
2021/11/15 13:11:07;;;;;;;41.30;27.80;;;;;;;4.84;80.84;100853.13;418129;1310;201674;-61
2021/11/15 13:21:13;;;;;;;42.10;26.40;;;;;;;4.85;80.51;100850.33;430910;1311;142332;-62
2021/11/15 13:31:19;;;;;;;44.80;26.80;;;;;;;4.82;80.79;100855.80;434082;1312;142464;-63
2021/11/15 13:41:26;;;;;;;43.50;26.40;;;;;;;4.81;80.72;100853.70;427454;1313;142410;-63
2021/11/15 13:51:32;;;;;;;47.30;29.00;;;;;;;4.79;80.86;100850.80;426800;1314;143247;-62
2021/11/15 14:01:40;;;;;;;45.10;28.70;;;;;;;4.79;80.80;100855.65;433234;1308;143178;-63
2021/11/15 14:11:46;;;;;;;44.20;29.20;;;;;;;4.75;80.84;100863.18;434032;1309;145279;-62
2021/11/15 14:21:52;;;;;;;48.10;29.30;;;;;;;4.67;80.86;100869.77;424075;1312;142949;-63
2021/11/15 14:31:58;;;;;;;51.30;32.10;;;;;;;4.58;81.16;100881.36;431963;1311;142546;-62
2021/11/15 14:42:05;;;;;;;53.20;31.50;;;;;;;4.54;81.50;100874.33;419680;1312;142950;-63
2021/11/15 14:52:16;;;;;;;47.80;31.20;;;;;;;4.49;81.71;100875.98;419084;1312;141453;-62
2021/11/15 15:02:22;;;;;;;53.40;30.20;;;;;;;4.47;81.78;100885.20;428104;1310;142583;-68
2021/11/15 15:12:28;;;;;;;50.00;30.00;;;;;;;4.47;82.01;100893.88;433740;1310;141679;-57
2021/11/15 15:22:36;;;;;;;50.70;33.40;;;;;;;4.50;81.95;100887.05;432645;1308;142049;-57
2021/11/15 15:32:45;;;;;;;50.80;31.50;;;;;;;4.52;82.16;100883.05;420687;1313;142815;-57
2021/11/15 15:42:52;;;;;;;57.30;34.80;;;;;;;4.52;82.48;100887.40;433293;1311;142496;-58
2021/11/15 15:52:59;;;;;;;56.20;32.40;;;;;;;4.52;82.36;100891.91;433451;1310;145168;-58
2021/11/15 16:03:05;;;;;;;55.50;35.10;;;;;;;4.50;82.29;100896.27;433850;1311;141346;-58
2021/11/15 16:13:38;;;;;;;50.90;33.70;;;;;;;4.49;82.88;100893.49;432772;1313;141794;-58
2021/11/15 16:23:44;;;;;;;55.90;35.10;;;;;;;4.49;82.94;100892.80;432626;1312;260596;-57
2021/11/15 16:33:52;;;;;;;49.30;32.20;;;;;;;4.53;83.05;100885.29;426965;1307;143302;-57
2021/11/15 16:43:59;;;;;;;58.30;34.00;;;;;;;4.55;82.90;100890.44;433456;1312;142176;-57
2021/11/15 16:54:05;;;;;;;57.50;38.30;;;;;;;4.57;83.20;100892.15;434081;1309;142741;-59
2021/11/15 17:04:11;;;;;;;70.20;39.50;;;;;;;4.59;83.10;100889.70;431016;1312;142979;-58
2021/11/15 17:14:18;;;;;;;59.50;37.30;;;;;;;4.59;82.91;100886.21;427762;1314;142406;-66
2021/11/15 17:24:26;;;;;;;68.80;41.50;;;;;;;4.61;83.31;100877.67;433910;1312;142854;-60
2021/11/15 17:34:32;;;;;;;61.80;37.20;;;;;;;4.59;83.34;100875.11;430933;1308;142915;-61
2021/11/15 17:44:40;;;;;;;65.20;36.50;;;;;;;4.60;83.48;100867.65;424829;1313;10001999;-59
2021/11/15 17:55:00;;;;;;;63.50;39.10;;;;;;;4.58;83.54;100863.86;421958;1312;141821;-60
2021/11/15 18:05:09;;;;;;;68.20;41.70;;;;;;;4.55;83.63;100863.90;434646;1311;142533;-60
2021/11/15 18:15:22;;;;;;;69.80;39.80;;;;;;;4.55;83.64;100872.94;421854;1309;142391;-60
2021/11/15 18:25:28;;;;;;;70.80;38.90;;;;;;;4.52;83.82;100867.95;433837;1309;142647;-59
2021/11/15 18:35:35;;;;;;;65.10;37.30;;;;;;;4.49;83.90;100850.49;434743;1309;142442;-60
2021/11/15 18:45:43;;;;;;;62.20;36.60;;;;;;;4.51;83.93;100848.56;432149;1312;198095;-60
2021/11/15 18:55:51;;;;;;;63.10;37.90;;;;;;;4.51;84.03;100857.39;428586;1309;142466;-61
2021/11/15 19:06:04;;;;;;;63.10;39.00;;;;;;;4.48;84.00;100852.42;418398;1312;141557;-60
2021/11/15 19:16:10;;;;;;;74.60;43.10;;;;;;;4.43;84.08;100851.64;421514;1311;143016;-58
2021/11/15 19:26:19;;;;;;;62.40;37.70;;;;;;;4.41;84.07;100869.20;422650;1311;143012;-50
2021/11/15 19:36:28;;;;;;;65.30;40.40;;;;;;;4.40;84.35;100881.20;418609;1311;142537;-59
2021/11/15 19:46:35;;;;;;;60.80;35.10;;;;;;;4.40;84.28;100874.41;419427;1308;141976;-58
2021/11/15 19:56:42;;;;;;;60.00;35.60;;;;;;;4.41;84.05;100871.61;420434;1312;141788;-59
2021/11/15 20:06:48;;;;;;;59.50;37.80;;;;;;;4.40;83.58;100859.35;419951;1311;145662;-60
2021/11/15 20:16:54;;;;;;;50.00;34.60;;;;;;;4.42;83.90;100843.35;419448;1311;142200;-59
2021/11/15 20:27:13;;;;;;;59.00;34.20;;;;;;;4.44;83.61;100845.38;421954;1312;143197;-59
2021/11/15 20:37:21;;;;;;;52.10;33.40;;;;;;;4.48;83.50;100840.98;429934;1312;141682;-54
2021/11/15 20:47:28;;;;;;;47.00;30.90;;;;;;;4.53;83.52;100836.90;422231;1312;142641;-55
2021/11/15 20:57:34;;;;;;;50.20;32.30;;;;;;;4.55;83.36;100828.01;418983;1312;142768;-54
2021/11/15 21:07:40;;;;;;;47.50;31.70;;;;;;;4.58;83.50;100821.89;422515;1312;142318;-58
2021/11/15 21:17:47;;;;;;;52.20;34.00;;;;;;;4.60;83.16;100816.81;427934;1312;143229;-57
2021/11/15 21:27:54;;;;;;;45.00;30.80;;;;;;;4.63;83.05;100815.20;425253;1308;142124;-57
2021/11/15 21:38:00;;;;;;;47.80;30.00;;;;;;;4.67;82.93;100811.13;433021;1310;142442;-55
2021/11/15 21:48:07;;;;;;;43.60;32.70;;;;;;;4.68;82.91;100809.20;433988;1312;143515;-55
2021/11/15 21:58:14;;;;;;;47.70;32.70;;;;;;;4.70;82.79;100801.55;430639;1310;186680;-52
2021/11/15 22:08:26;;;;;;;46.30;32.30;;;;;;;4.71;82.62;100802.73;421461;1312;142808;-55
2021/11/15 22:18:34;;;;;;;46.20;31.50;;;;;;;4.70;82.88;100789.56;419728;1311;144382;-49
2021/11/15 22:28:42;;;;;;;52.80;34.10;;;;;;;4.69;82.66;100789.59;423655;1309;143359;-55
2021/11/15 22:38:52;;;;;;;45.90;29.50;;;;;;;4.70;82.70;100788.70;433160;1308;143303;-58
2021/11/15 22:48:58;;;;;;;48.60;34.00;;;;;;;4.72;82.64;100781.20;435330;1309;141813;-58
2021/11/15 22:59:04;;;;;;;45.00;30.20;;;;;;;4.73;82.51;100775.97;431798;1312;142517;-65
2021/11/15 23:09:14;;;;;;;43.20;29.20;;;;;;;4.72;82.43;100769.39;433815;1311;145500;-64
2021/11/15 23:19:20;;;;;;;45.80;31.40;;;;;;;4.74;82.56;100774.92;432800;1311;143736;-62
2021/11/15 23:29:27;;;;;;;47.60;33.70;;;;;;;4.75;82.55;100764.83;426938;1311;141883;-63
2021/11/15 23:39:35;;;;;;;47.20;30.80;;;;;;;4.74;82.54;100747.15;421330;1312;145663;-62
2021/11/15 23:49:41;;;;;;;47.40;30.60;;;;;;;4.70;82.57;100743.27;434870;1309;144847;-62
2021/11/15 23:59:48;;;;;;;45.50;33.00;;;;;;;4.69;82.52;100734.26;431762;1312;142822;-63
